Adamsville, Pennsylvania
Current Conditions -  °F | °C
As of 7:21 AM on Monday 26 Jan 2015 (Local Time) from KGKJ Reporting Station
Light Snow Light Snow  
Wind Chill:   Ceiling: 2500
Heat Index: 18°   Visibility: 1mi
Dew Point: 14°   Wind: 10mph
Humidity: 84%   Direction: 40°NE
Pressure: 29.75"   Gusts: NA
Location:  41.51°N, 80.37°W
Report Text: KGKJ 261221Z AUTO 04009KT 1SM -SN BR OVC025 M08/M10 A2975 RMK AO2 P0000 T10781100 TSNO
Loading
Personal Weather Stations






























Interactive Weather Map New forecast layout! Learn more

10-Day Weather Forecast

Advertisements
Track Severe Weather on mobile